createdAt,value
2018-07-24T00:01:47.250Z,17.70
2018-07-24T00:04:13.992Z,17.60
2018-07-24T00:06:40.735Z,17.60
2018-07-24T00:09:07.410Z,17.50
2018-07-24T00:11:35.032Z,17.60
2018-07-24T00:14:01.772Z,17.50
2018-07-24T00:16:28.517Z,17.60
2018-07-24T00:18:55.237Z,17.60
2018-07-24T00:21:22.711Z,17.60
2018-07-24T00:23:49.429Z,17.50
2018-07-24T00:26:16.907Z,17.50
2018-07-24T00:28:43.649Z,17.50
2018-07-24T00:31:10.388Z,17.50
2018-07-24T00:33:37.190Z,17.50
2018-07-24T00:36:03.972Z,17.50
2018-07-24T00:38:30.585Z,17.40
2018-07-24T00:40:58.066Z,17.40
2018-07-24T00:43:24.761Z,17.40
2018-07-24T00:45:51.392Z,17.40
2018-07-24T00:48:18.086Z,17.40
2018-07-24T00:50:44.822Z,17.30
2018-07-24T00:53:11.458Z,17.30
2018-07-24T00:55:38.175Z,17.30
2018-07-24T00:58:05.560Z,17.30
2018-07-24T01:00:32.296Z,17.30
2018-07-24T01:02:59.042Z,17.30
2018-07-24T01:05:25.777Z,17.30
2018-07-24T01:07:52.399Z,17.30
2018-07-24T01:10:19.157Z,17.30
2018-07-24T01:12:45.900Z,17.30
2018-07-24T01:15:12.923Z,17.40
2018-07-24T01:17:40.383Z,17.50
2018-07-24T01:20:07.865Z,17.50
2018-07-24T01:22:34.572Z,17.50
2018-07-24T01:25:02.034Z,17.60
2018-07-24T01:27:29.491Z,17.60
2018-07-24T01:29:56.972Z,17.70
2018-07-24T01:32:23.680Z,17.60
2018-07-24T01:34:51.170Z,17.70
2018-07-24T01:37:17.911Z,17.60
2018-07-24T01:39:44.649Z,17.70
2018-07-24T01:42:11.389Z,17.70
2018-07-24T01:44:38.334Z,17.80
2018-07-24T01:47:05.076Z,17.90
2018-07-24T01:49:31.815Z,17.90
2018-07-24T01:51:58.555Z,18.00
2018-07-24T01:54:25.295Z,18.10
2018-07-24T01:56:52.035Z,18.10
2018-07-24T01:59:18.860Z,18.20
2018-07-24T02:01:45.656Z,18.20
2018-07-24T02:04:13.385Z,18.30
2018-07-24T02:06:40.531Z,18.30
2018-07-24T02:09:08.277Z,18.30
2018-07-24T02:11:36.267Z,18.40
2018-07-24T02:14:03.084Z,18.30
2018-07-24T02:16:29.850Z,18.40
2018-07-24T02:18:56.796Z,18.40
2018-07-24T02:21:23.533Z,18.40
2018-07-24T02:23:50.188Z,18.50
2018-07-24T02:26:16.885Z,18.50
2018-07-24T02:28:44.372Z,18.50
2018-07-24T02:31:11.115Z,18.50
2018-07-24T02:33:37.851Z,18.50
2018-07-24T02:36:04.592Z,18.50
2018-07-24T02:38:31.332Z,18.50
2018-07-24T02:40:58.073Z,18.50
2018-07-24T02:43:24.813Z,18.50
2018-07-24T02:45:51.528Z,18.50
2018-07-24T02:48:19.013Z,18.40
2018-07-24T02:50:45.753Z,18.40
2018-07-24T02:53:12.491Z,18.40
2018-07-24T02:55:39.176Z,18.40
2018-07-24T02:58:05.869Z,18.40
2018-07-24T03:00:32.612Z,18.30
2018-07-24T03:02:59.351Z,18.30
2018-07-24T03:05:26.074Z,18.30
2018-07-24T03:07:53.653Z,18.20
2018-07-24T03:10:20.495Z,18.20
2018-07-24T03:12:47.234Z,18.20
2018-07-24T03:15:13.872Z,18.30
2018-07-24T03:17:40.587Z,18.30
2018-07-24T03:20:08.275Z,18.20
2018-07-24T03:22:35.014Z,18.20
2018-07-24T03:25:01.751Z,18.30
2018-07-24T03:27:28.502Z,18.20
2018-07-24T03:29:55.232Z,18.20
2018-07-24T03:32:21.972Z,18.20
2018-07-24T03:34:48.715Z,18.30
2018-07-24T03:37:15.457Z,18.20
2018-07-24T03:39:42.231Z,18.20
2018-07-24T03:42:08.902Z,18.20
2018-07-24T03:44:36.393Z,18.30
2018-07-24T03:47:03.064Z,18.30
2018-07-24T03:49:29.700Z,18.40
2018-07-24T03:51:56.410Z,18.40
2018-07-24T03:54:23.147Z,18.50
2018-07-24T03:56:49.885Z,18.60
2018-07-24T03:59:16.733Z,18.70
2018-07-24T04:01:43.473Z,18.70
2018-07-24T04:04:10.316Z,18.80
2018-07-24T04:06:36.984Z,18.80
2018-07-24T04:09:03.796Z,18.80
2018-07-24T04:11:30.537Z,19.00
2018-07-24T04:13:57.276Z,19.00
2018-07-24T04:16:24.118Z,19.20
2018-07-24T04:18:50.835Z,20.10
2018-07-24T04:21:18.418Z,21.70
2018-07-24T04:23:46.161Z,22.90
2018-07-24T04:26:13.641Z,23.20
2018-07-24T04:28:40.484Z,23.20
2018-07-24T04:31:07.655Z,23.00
2018-07-24T04:33:34.683Z,23.00
2018-07-24T04:36:01.630Z,23.80
2018-07-24T04:38:28.295Z,24.10
2018-07-24T04:40:55.008Z,24.10
2018-07-24T04:43:21.684Z,23.80
2018-07-24T04:45:48.483Z,23.70
2018-07-24T04:48:15.224Z,25.30
2018-07-24T04:50:41.905Z,27.70
2018-07-24T04:53:08.608Z,28.80
2018-07-24T04:55:35.344Z,28.90
2018-07-24T04:58:02.291Z,28.90
2018-07-24T05:00:29.030Z,30.40
2018-07-24T05:02:55.769Z,30.20
2018-07-24T05:05:22.510Z,29.10
2018-07-24T05:07:49.250Z,28.60
2018-07-24T05:10:15.969Z,28.20
2018-07-24T05:12:43.422Z,27.70
2018-07-24T05:15:10.906Z,28.10
2018-07-24T05:17:37.652Z,28.10
2018-07-24T05:20:04.489Z,29.20
2018-07-24T05:22:31.230Z,31.30
2018-07-24T05:24:57.968Z,33.40
2018-07-24T05:27:24.872Z,34.60
2018-07-24T05:29:52.373Z,37.20
2018-07-24T05:32:19.107Z,37.10
2018-07-24T05:34:45.823Z,37.50
2018-07-24T05:37:13.311Z,37.90
2018-07-24T05:39:40.049Z,37.80
2018-07-24T05:42:06.791Z,39.70
2018-07-24T05:44:33.431Z,38.90
2018-07-24T05:47:00.170Z,40.20
2018-07-24T05:49:26.910Z,40.20
2018-07-24T05:51:53.649Z,40.30
2018-07-24T05:54:20.390Z,41.30
2018-07-24T05:56:47.130Z,41.30
2018-07-24T05:59:13.973Z,42.20
2018-07-24T06:01:40.709Z,42.70
2018-07-24T06:04:07.453Z,42.90
2018-07-24T06:06:34.168Z,44.30
2018-07-24T06:09:01.652Z,44.90
2018-07-24T06:11:28.390Z,44.70
2018-07-24T06:13:55.129Z,42.00
2018-07-24T06:16:21.861Z,42.30
2018-07-24T06:18:49.433Z,41.10
2018-07-24T06:21:16.250Z,41.10
2018-07-24T06:23:43.709Z,43.50
2018-07-24T06:26:11.909Z,43.70
2018-07-24T06:28:38.851Z,43.70
2018-07-24T06:31:05.485Z,42.20
2018-07-24T06:33:32.225Z,43.40
2018-07-24T06:35:58.968Z,42.20
2018-07-24T06:38:25.711Z,40.70
2018-07-24T06:40:52.369Z,38.50
2018-07-24T06:43:19.236Z,39.40
2018-07-24T06:45:45.929Z,40.10
2018-07-24T06:48:12.672Z,40.40
2018-07-24T06:50:39.451Z,41.90
2018-07-24T06:53:06.149Z,42.20
2018-07-24T06:55:32.858Z,42.00
2018-07-24T06:57:59.630Z,42.90
2018-07-24T07:00:26.373Z,42.70
2018-07-24T07:02:53.109Z,42.20
2018-07-24T07:05:19.852Z,40.70
2018-07-24T07:07:46.496Z,39.80
2018-07-24T07:10:13.285Z,40.30
2018-07-24T07:12:40.073Z,42.10
2018-07-24T07:15:06.810Z,42.20
2018-07-24T07:17:33.554Z,42.10
2018-07-24T07:20:00.263Z,42.50
2018-07-24T07:22:27.750Z,42.60
2018-07-24T07:24:54.491Z,42.60
2018-07-24T07:27:21.412Z,42.60
2018-07-24T07:29:48.892Z,45.90
2018-07-24T07:32:15.534Z,45.90
2018-07-24T07:34:42.375Z,44.80
2018-07-24T07:37:09.116Z,44.50
2018-07-24T07:39:35.855Z,44.90
2018-07-24T07:42:02.799Z,43.80
2018-07-24T07:44:29.539Z,45.40
2018-07-24T07:46:56.385Z,44.70
2018-07-24T07:49:23.122Z,45.50
2018-07-24T07:51:49.862Z,46.60
2018-07-24T07:54:16.603Z,46.60
2018-07-24T07:56:43.322Z,46.80
2018-07-24T07:59:10.799Z,45.50
2018-07-24T08:01:37.543Z,45.50
2018-07-24T08:04:04.387Z,46.50
2018-07-24T08:06:31.126Z,47.00
2018-07-24T08:08:58.278Z,46.50
2018-07-24T08:11:25.014Z,45.20
2018-07-24T08:13:51.754Z,45.00
2018-07-24T08:16:18.702Z,45.00
2018-07-24T08:18:45.357Z,46.40
2018-07-24T08:21:12.079Z,44.90
2018-07-24T08:23:38.770Z,45.10
2018-07-24T08:26:05.456Z,43.60
2018-07-24T08:28:32.198Z,43.60
2018-07-24T08:30:58.938Z,43.50
2018-07-24T08:33:25.681Z,44.40
2018-07-24T08:35:52.420Z,44.00
2018-07-24T08:38:19.269Z,43.00
2018-07-24T08:40:46.105Z,43.30
2018-07-24T08:43:12.843Z,43.30
2018-07-24T08:45:39.556Z,43.80
2018-07-24T08:48:07.045Z,44.10
2018-07-24T08:50:33.787Z,44.10
2018-07-24T08:53:00.705Z,43.10
2018-07-24T08:55:27.578Z,42.80
2018-07-24T08:57:54.109Z,42.60
2018-07-24T09:00:20.851Z,43.00
2018-07-24T09:02:47.588Z,42.10
2018-07-24T09:05:14.305Z,41.40
2018-07-24T09:07:41.705Z,37.90
2018-07-24T09:10:08.429Z,37.90
2018-07-24T09:12:35.366Z,37.20
2018-07-24T09:15:02.109Z,37.00
2018-07-24T09:17:28.850Z,36.10
2018-07-24T09:19:55.793Z,35.50
2018-07-24T09:22:22.534Z,34.80
2018-07-24T09:24:49.276Z,33.80
2018-07-24T09:27:16.017Z,33.30
2018-07-24T09:29:42.961Z,33.40
2018-07-24T09:32:10.777Z,33.60
2018-07-24T09:34:37.465Z,33.60
2018-07-24T09:37:04.381Z,33.20
2018-07-24T09:39:31.973Z,33.50
2018-07-24T09:41:58.712Z,33.50
2018-07-24T09:44:25.529Z,33.80
2018-07-24T09:46:53.010Z,34.30
2018-07-24T09:49:19.756Z,34.30
2018-07-24T09:51:46.492Z,34.50
2018-07-24T09:54:13.243Z,35.00
2018-07-24T09:56:39.981Z,34.50
2018-07-24T09:59:07.533Z,33.90
2018-07-24T10:01:34.275Z,33.80
2018-07-24T10:04:01.011Z,33.90
2018-07-24T10:06:27.751Z,33.50
2018-07-24T10:08:54.593Z,33.30
2018-07-24T10:11:21.254Z,32.80
2018-07-24T10:13:47.971Z,32.80
2018-07-24T10:16:14.640Z,33.10
2018-07-24T10:18:41.354Z,33.60
2018-07-24T10:21:08.300Z,33.20
2018-07-24T10:23:35.035Z,33.20
2018-07-24T10:26:01.778Z,33.60
2018-07-24T10:28:28.518Z,34.20
2018-07-24T10:30:55.261Z,34.40
2018-07-24T10:33:22.101Z,34.80
2018-07-24T10:35:48.943Z,34.20
2018-07-24T10:38:15.663Z,33.90
2018-07-24T10:40:42.629Z,33.50
2018-07-24T10:43:09.400Z,32.90
2018-07-24T10:45:36.111Z,32.50
2018-07-24T10:48:02.818Z,32.50
2018-07-24T10:50:30.308Z,32.60
2018-07-24T10:52:57.045Z,32.50
2018-07-24T10:55:23.789Z,32.30
2018-07-24T10:57:50.530Z,32.20
2018-07-24T11:00:17.267Z,32.00
2018-07-24T11:02:43.903Z,32.20
2018-07-24T11:05:10.684Z,32.30
2018-07-24T11:07:37.366Z,32.10
2018-07-24T11:10:04.845Z,31.60
2018-07-24T11:12:31.586Z,31.60
2018-07-24T11:14:58.325Z,31.50
2018-07-24T11:17:25.041Z,31.30
2018-07-24T11:19:52.524Z,31.50
2018-07-24T11:22:21.033Z,31.50
2018-07-24T11:24:49.179Z,31.70
2018-07-24T11:27:15.858Z,31.70
2018-07-24T11:29:42.660Z,31.40
2018-07-24T11:32:09.374Z,31.20
2018-07-24T11:34:36.856Z,31.20
2018-07-24T11:37:03.594Z,31.20
2018-07-24T11:39:30.340Z,31.50
2018-07-24T11:41:57.080Z,31.70
2018-07-24T11:44:23.792Z,31.70
2018-07-24T11:46:51.280Z,31.90
2018-07-24T11:49:18.016Z,31.90
2018-07-24T11:51:44.912Z,31.80
2018-07-24T11:54:11.600Z,31.40
2018-07-24T11:56:38.850Z,31.20
2018-07-24T11:59:05.592Z,31.10
2018-07-24T12:01:32.403Z,31.60
2018-07-24T12:03:59.772Z,31.30
2018-07-24T12:06:26.509Z,31.20
2018-07-24T12:08:54.191Z,31.80
2018-07-24T12:11:20.904Z,31.70
2018-07-24T12:13:47.774Z,32.30
2018-07-24T12:16:14.496Z,32.70
2018-07-24T12:18:41.972Z,31.50
2018-07-24T12:21:08.698Z,31.50
2018-07-24T12:23:36.991Z,31.30
2018-07-24T12:26:03.832Z,31.30
2018-07-24T12:28:30.572Z,31.40
2018-07-24T12:30:57.417Z,31.70
2018-07-24T12:33:24.360Z,31.90
2018-07-24T12:35:52.675Z,31.90
2018-07-24T12:38:19.352Z,31.90
2018-07-24T12:40:46.834Z,32.30
2018-07-24T12:43:13.557Z,32.30
2018-07-24T12:45:41.030Z,32.90
2018-07-24T12:48:07.773Z,32.90
2018-07-24T12:50:34.590Z,32.70
2018-07-24T12:53:02.070Z,32.70
2018-07-24T12:55:28.815Z,32.60
2018-07-24T12:57:55.541Z,32.60
2018-07-24T13:00:22.294Z,31.80
2018-07-24T13:02:48.964Z,31.80
2018-07-24T13:05:15.876Z,31.90
2018-07-24T13:07:42.618Z,31.70
2018-07-24T13:10:09.887Z,31.80
2018-07-24T13:12:36.612Z,32.20
2018-07-24T13:15:03.509Z,32.40
2018-07-24T13:17:31.016Z,32.40
2018-07-24T13:19:57.753Z,32.40
2018-07-24T13:22:24.492Z,32.20
2018-07-24T13:24:51.235Z,31.80
2018-07-24T13:27:17.978Z,32.10
2018-07-24T13:29:45.532Z,32.40
2018-07-24T13:32:12.325Z,32.40
2018-07-24T13:34:38.988Z,32.80
2018-07-24T13:37:06.393Z,33.30
2018-07-24T13:39:33.215Z,33.30
2018-07-24T13:41:59.954Z,33.30
2018-07-24T13:44:26.675Z,33.10
2018-07-24T13:46:53.431Z,33.00
2018-07-24T13:49:20.172Z,32.30
2018-07-24T13:51:47.019Z,32.30
2018-07-24T13:54:13.757Z,32.20
2018-07-24T13:56:40.499Z,32.50
2018-07-24T13:59:07.234Z,32.10
2018-07-24T14:01:33.965Z,32.00
2018-07-24T14:04:00.620Z,31.80
2018-07-24T14:06:27.356Z,31.90
2018-07-24T14:08:54.097Z,31.80
2018-07-24T14:11:20.857Z,31.50
2018-07-24T14:13:47.575Z,31.00
2018-07-24T14:16:15.139Z,30.90
2018-07-24T14:18:41.980Z,30.90
2018-07-24T14:21:08.718Z,31.00
2018-07-24T14:23:35.438Z,30.90
2018-07-24T14:26:03.331Z,30.40
2018-07-24T14:28:30.069Z,30.40
2018-07-24T14:30:57.013Z,30.40
2018-07-24T14:33:23.756Z,30.70
2018-07-24T14:35:50.601Z,30.80
2018-07-24T14:38:17.747Z,30.90
2018-07-24T14:40:44.794Z,31.10
2018-07-24T14:43:12.356Z,31.00
2018-07-24T14:45:39.064Z,30.90
2018-07-24T14:48:06.549Z,30.40
2018-07-24T14:50:34.416Z,30.40
2018-07-24T14:53:01.161Z,30.30
2018-07-24T14:55:27.899Z,30.20
2018-07-24T14:57:54.741Z,30.10
2018-07-24T15:00:21.587Z,30.30
2018-07-24T15:02:48.429Z,30.20
2018-07-24T15:05:15.169Z,30.30
2018-07-24T15:07:41.911Z,30.00
2018-07-24T15:10:08.651Z,29.70
2018-07-24T15:12:35.473Z,29.80
2018-07-24T15:15:02.218Z,29.90
2018-07-24T15:17:29.073Z,30.00
2018-07-24T15:19:55.963Z,29.90
2018-07-24T15:22:22.760Z,30.00
2018-07-24T15:24:49.811Z,30.20
2018-07-24T15:27:16.756Z,30.00
2018-07-24T15:29:43.698Z,29.80
2018-07-24T15:32:10.646Z,29.50
2018-07-24T15:34:37.648Z,29.60
2018-07-24T15:37:04.403Z,29.60
2018-07-24T15:39:31.174Z,29.70
2018-07-24T15:41:58.016Z,29.50
2018-07-24T15:44:24.758Z,29.20
2018-07-24T15:46:51.529Z,29.10
2018-07-24T15:49:18.197Z,28.90
2018-07-24T15:51:45.600Z,29.30
2018-07-24T15:54:12.335Z,29.20
2018-07-24T15:56:39.174Z,29.20
2018-07-24T15:59:06.021Z,29.00
2018-07-24T16:01:32.807Z,28.90
2018-07-24T16:03:59.497Z,29.00
2018-07-24T16:06:34.426Z,28.90
2018-07-24T16:09:01.520Z,28.80
2018-07-24T16:11:28.220Z,28.80
2018-07-24T16:13:54.959Z,28.90
2018-07-24T16:16:21.677Z,28.90
2018-07-24T16:18:49.167Z,28.90
2018-07-24T16:21:15.876Z,28.90
2018-07-24T16:23:42.844Z,28.90
2018-07-24T16:26:09.582Z,28.80
2018-07-24T16:28:36.325Z,28.60
2018-07-24T16:31:03.008Z,28.50
2018-07-24T16:33:29.803Z,28.50
2018-07-24T16:35:56.546Z,28.40
2018-07-24T16:38:23.285Z,28.30
2018-07-24T16:40:50.024Z,28.30
2018-07-24T16:43:16.868Z,28.40
2018-07-24T16:45:43.564Z,28.40
2018-07-24T16:48:10.355Z,28.30
2018-07-24T16:50:37.298Z,28.40
2018-07-24T16:53:04.137Z,28.20
2018-07-24T16:55:30.800Z,28.10
2018-07-24T16:57:57.859Z,28.00
2018-07-24T17:00:24.770Z,27.90
2018-07-24T17:02:51.572Z,27.80
2018-07-24T17:05:18.304Z,27.80
2018-07-24T17:07:45.811Z,27.50
2018-07-24T17:10:12.752Z,27.50
2018-07-24T17:12:39.490Z,27.50
2018-07-24T17:15:06.231Z,27.50
2018-07-24T17:17:32.976Z,27.40
2018-07-24T17:19:59.713Z,27.30
2018-07-24T17:22:26.493Z,27.20
2018-07-24T17:24:53.197Z,27.00
2018-07-24T17:27:19.843Z,26.90
2018-07-24T17:29:46.572Z,26.90
2018-07-24T17:32:13.313Z,26.90
2018-07-24T17:34:40.155Z,26.90
2018-07-24T17:37:06.895Z,26.80
2018-07-24T17:39:33.636Z,26.70
2018-07-24T17:42:00.377Z,26.70
2018-07-24T17:44:27.115Z,26.70
2018-07-24T17:46:53.864Z,26.40
2018-07-24T17:49:20.707Z,26.40
2018-07-24T17:51:47.438Z,26.40
2018-07-24T17:54:14.183Z,26.30
2018-07-24T17:56:40.924Z,26.30
2018-07-24T17:59:07.554Z,26.30
2018-07-24T18:01:34.244Z,26.20
2018-07-24T18:04:01.012Z,26.10
2018-07-24T18:06:28.498Z,26.00
2018-07-24T18:08:55.235Z,25.90
2018-07-24T18:11:21.975Z,25.90
2018-07-24T18:13:48.821Z,25.80
2018-07-24T18:16:15.565Z,25.80
2018-07-24T18:18:42.301Z,25.70
2018-07-24T18:21:09.039Z,25.70
2018-07-24T18:23:35.778Z,25.60
2018-07-24T18:26:02.520Z,25.50
2018-07-24T18:28:29.241Z,25.50
2018-07-24T18:30:56.717Z,25.40
2018-07-24T18:33:25.147Z,25.30
2018-07-24T18:35:52.044Z,25.30
2018-07-24T18:38:18.782Z,25.30
2018-07-24T18:40:45.522Z,25.20
2018-07-24T18:43:12.367Z,25.10
2018-07-24T18:45:39.825Z,24.90
2018-07-24T18:48:06.563Z,24.90
2018-07-24T18:50:33.714Z,24.90
2018-07-24T18:53:00.941Z,24.80
2018-07-24T18:55:28.424Z,24.60
2018-07-24T18:57:55.166Z,24.50
2018-07-24T19:00:22.214Z,24.50
2018-07-24T19:02:49.029Z,24.40
2018-07-24T19:05:18.105Z,24.20
2018-07-24T19:07:45.093Z,24.10
2018-07-24T19:10:12.554Z,24.10
2018-07-24T19:12:39.397Z,24.10
2018-07-24T19:15:06.238Z,23.90
2018-07-24T19:17:33.184Z,23.80
2018-07-24T19:20:00.957Z,23.60
2018-07-24T19:22:27.691Z,23.60
2018-07-24T19:24:55.043Z,23.40
2018-07-24T19:27:21.781Z,23.30
2018-07-24T19:29:49.141Z,23.20
2018-07-24T19:32:16.785Z,23.10
2018-07-24T19:34:44.774Z,22.80
2018-07-24T19:37:11.509Z,22.80
2018-07-24T19:39:38.659Z,22.70
2018-07-24T19:42:06.221Z,22.60
2018-07-24T19:44:33.265Z,22.60
2018-07-24T19:47:00.006Z,22.50
2018-07-24T19:49:26.984Z,22.50
2018-07-24T19:51:53.778Z,22.40
2018-07-24T19:54:20.639Z,22.30
2018-07-24T19:56:47.584Z,22.20
2018-07-24T19:59:14.739Z,22.10
2018-07-24T20:01:41.885Z,22.00
2018-07-24T20:04:09.750Z,21.90
2018-07-24T20:06:36.490Z,21.90
2018-07-24T20:09:03.335Z,21.80
2018-07-24T20:11:30.316Z,21.60
2018-07-24T20:13:57.122Z,21.60
2018-07-24T20:16:23.833Z,21.60
2018-07-24T20:18:51.525Z,21.60
2018-07-24T20:21:18.673Z,21.50
2018-07-24T20:23:46.024Z,21.40
2018-07-24T20:26:12.673Z,21.30
2018-07-24T20:28:39.423Z,21.20
2018-07-24T20:31:06.103Z,21.10
2018-07-24T20:33:33.196Z,21.10
2018-07-24T20:35:59.934Z,21.00
2018-07-24T20:38:26.776Z,20.90
2018-07-24T20:40:53.605Z,20.90
2018-07-24T20:43:21.081Z,20.80
2018-07-24T20:45:47.819Z,20.70
2018-07-24T20:48:14.541Z,20.70
2018-07-24T20:50:42.021Z,20.60
2018-07-24T20:53:08.679Z,20.60
2018-07-24T20:55:35.602Z,20.50
2018-07-24T20:58:02.446Z,20.50
2018-07-24T21:00:29.186Z,20.50
2018-07-24T21:02:56.030Z,20.50
2018-07-24T21:05:22.975Z,20.40
2018-07-24T21:07:49.710Z,20.30
2018-07-24T21:10:16.452Z,20.30
2018-07-24T21:12:43.296Z,20.10
2018-07-24T21:15:10.035Z,20.20
2018-07-24T21:17:36.775Z,20.10
2018-07-24T21:20:03.930Z,20.00
2018-07-24T21:22:30.768Z,20.00
2018-07-24T21:24:57.815Z,20.00
2018-07-24T21:27:24.877Z,20.00
2018-07-24T21:29:51.605Z,19.90
2018-07-24T21:32:18.448Z,19.90
2018-07-24T21:34:45.188Z,19.90
2018-07-24T21:37:11.929Z,19.80
2018-07-24T21:39:38.977Z,19.70
2018-07-24T21:42:05.821Z,19.70
2018-07-24T21:44:32.559Z,19.60
2018-07-24T21:46:59.505Z,19.60
2018-07-24T21:49:27.166Z,19.50
2018-07-24T21:51:54.933Z,19.50
2018-07-24T21:54:22.395Z,19.50
2018-07-24T21:56:49.131Z,19.40
2018-07-24T21:59:16.073Z,19.40
2018-07-24T22:01:42.812Z,19.40
2018-07-24T22:04:09.558Z,19.30
2018-07-24T22:06:38.733Z,19.30
2018-07-24T22:09:05.494Z,19.30
2018-07-24T22:11:32.235Z,19.20
2018-07-24T22:13:58.974Z,19.10
2018-07-24T22:16:25.816Z,19.00
2018-07-24T22:18:52.555Z,19.10
2018-07-24T22:21:19.298Z,19.00
2018-07-24T22:23:46.138Z,18.90
2018-07-24T22:26:12.776Z,18.90
2018-07-24T22:28:40.860Z,18.80
2018-07-24T22:31:07.695Z,18.80
2018-07-24T22:33:34.533Z,18.80
2018-07-24T22:36:01.327Z,18.80
2018-07-24T22:38:28.837Z,18.80
2018-07-24T22:40:55.678Z,18.80
2018-07-24T22:43:22.420Z,18.80
2018-07-24T22:45:49.267Z,18.80
2018-07-24T22:48:15.986Z,18.70
2018-07-24T22:50:42.710Z,18.70
2018-07-24T22:53:10.303Z,18.60
2018-07-24T22:55:37.454Z,18.60
2018-07-24T22:58:05.113Z,18.60
2018-07-24T23:00:31.835Z,18.50
2018-07-24T23:02:58.596Z,18.50
2018-07-24T23:05:25.334Z,18.50
2018-07-24T23:07:52.178Z,18.40
2018-07-24T23:10:18.916Z,18.30
2018-07-24T23:12:45.972Z,18.40
2018-07-24T23:15:12.814Z,18.20
2018-07-24T23:17:39.548Z,18.20
2018-07-24T23:20:06.287Z,18.20
2018-07-24T23:22:33.029Z,18.20
2018-07-24T23:24:59.768Z,18.10
2018-07-24T23:27:26.495Z,18.10
2018-07-24T23:29:53.968Z,18.00
2018-07-24T23:32:22.245Z,18.00
2018-07-24T23:34:48.983Z,17.90
2018-07-24T23:37:15.725Z,17.90
2018-07-24T23:39:42.675Z,17.90
2018-07-24T23:42:09.511Z,17.90
2018-07-24T23:44:36.257Z,17.90
2018-07-24T23:47:03.100Z,17.80
2018-07-24T23:49:30.459Z,17.80
2018-07-24T23:51:58.315Z,17.80
2018-07-24T23:54:25.956Z,17.70
2018-07-24T23:56:54.204Z,17.80
2018-07-24T23:59:21.008Z,17.70
